Pagrindinis puslapis
METAR-TAF:

METAR-TAF

Oro uostai :

Sandpoint Airport (Dave Wall Field)

Sandpoint, Aidahas, Jungtinės Amerikos Valstijos

platuma: 48-17-58N, ilguma: 116-33-36W, Aukštis: 648 m

Dabartinis oras

Ataskaita buvo paskelbta 17 minutes, ne 12:35 UTC
Ramus vėjas
Temperatūra -8°C
Drėgmė 100%
Slėgis 1030 hPa
Matomumas: 16.1 km
Giedras dangus

METAR: KSZT 191235Z AUTO 00000KT 10SM CLR M08/M08 A3043 RMK AO2

Laikas: 04:52 (12:52 UTC)


TAF: trūkstamas

Orai ataskaitas ir orų prognozės (METAR, TAF).

turimą stotys yra geltonos ir raudonos taškus žemėlapyje.

Perkelti pele per norėdami pamatyti stoties vardą.

Tada spustelėkite, norėdami matyti oro stebėjimo ir prognozės.

Norėdami pakeisti žemėlapį: spustelėkite ant žalios mygtukų su juodo kryžiaus žemyn,; žalią mygtuką su brūkšneliu, jei norite nutolinti; arba žalių rodyklių gretimoms žemėlapius.


METAR-TAF: